الصفحة الرئيسية
METAR-TAF:

METAR-TAF

مطار :

آلبورغ, الدنمارك

دائرة عرض: 57-06N, خط طول: 009-51E, ارتفاع: 3 متر

مراقبة الطقس الحالي

تاريخ ووقت الإصدار 46 دقيقة قبل الساعة 03:50UTC
ريح 5 عقدة من الجنوب الشرقي
درجة الحرارة 2°درجة مئوية
الرطوبة 100%
ضغط 1004 hPa
الرؤية 10 كم أو أكثر

METAR: EKYT 250350Z AUTO 13005KT 9999 OVC056/// 02/02 Q1004

زمن: 06:36 (04:36 UTC)

توقعات

تاريخ ووقت الإصدار 2ساعات و 22 دقيقة قبل الساعة 02:14UTC
التوقعات صالحة من25 الساعة 03 UTC إلى 26 الساعة 03 UTC
ريح 8 عقدة من الشرق/الجنوب الشرقي
الرؤية 10 كم أو أكثر
غيوم متفرقة على ارتفاع 2500 قدم
غيوم مفككة على ارتفاع 5000 قدم
مؤقت
من 25 الساعة 03 UTC إلى 25 الساعة 05 UTC
الرؤية: 2500 متر
غشاء
نظرية الاحتمالات 40%
من 25 الساعة 16 UTC إلى 25 الساعة 21 UTC
الرؤية: 5000 متر
غيوم متفرقة على ارتفاع 2000 قدم, مزنة ركامية.
زخات من المطر,

TAF: EKYT 250214Z 2503/2603 12008KT 9999 SCT025 BKN050 TEMPO 2503/2505 2500 BR PROB40 2516/2521 5000 SHRA SCT020CB

أرصاد الطقس والتوقعات من أكثر من 4000 مطار (تقارير الطقس للمطار METAR والتنبؤ بالطقس بالمطارTAF).

المحطات المتاحة هي النقط الصفراء والحمراء على الخريطة.

حرك المؤشر فوق النقطة لمعرفة اسم المحطة.

ثم انقر لمعرفة أرصاد وتوقعات الطقس.

لتغيير الخارطة: اضغط على الأزرار الخضراء مع رمز الصليب الأسود للتكبير. على الزر الأخضر مع شرطة للتصغير، أو على الأسهم الخضراء للخرائط المجاورة.


METAR-TAF: